Time;durP1;ratioP1;P1;durP2;ratioP2;P2;SDS_P1;SDS_P2;PMS_P1;PMS_P2;Temp;Humidity;BMP_temperature;BMP_pressure;BME280_temperature;BME280_humidity;BME280_pressure;Samples;Min_cycle;Max_cycle;Signal;HPM_P1;HPM_P2
2022/04/17 00:02:03;;;;;;;;;;;8.40;99.50;;;;;;5069779;28;19960;-75
2022/04/17 00:04:29;;;;;;;;;;;8.40;99.30;;;;;;5073724;28;19995;-75
2022/04/17 00:06:54;;;;;;;;;;;8.30;99.30;;;;;;5060731;28;20073;-75
2022/04/17 00:09:20;;;;;;;;;;;8.30;99.50;;;;;;5056202;28;20381;-75
2022/04/17 00:11:46;;;;;;;;;;;8.30;99.10;;;;;;5067834;28;19932;-76
2022/04/17 00:14:12;;;;;;;;;;;8.30;99.90;;;;;;5060736;28;19944;-75
2022/04/17 00:16:40;;;;;;;;;;;8.20;99.80;;;;;;5063632;28;19943;-75
2022/04/17 00:19:06;;;;;;;;;;;8.20;99.90;;;;;;5059300;28;19913;-76
2022/04/17 00:21:33;;;;;;;;;;;8.20;99.90;;;;;;5065455;28;19993;-76
2022/04/17 00:23:59;;;;;;;;;;;8.20;99.90;;;;;;5074461;28;20325;-75
2022/04/17 00:26:24;;;;;;;;;;;8.10;99.90;;;;;;5073676;28;19912;-75
2022/04/17 00:28:50;;;;;;;;;;;8.00;99.90;;;;;;5055513;28;19916;-75
2022/04/17 00:31:16;;;;;;;;;;;8.00;99.90;;;;;;5064000;28;19920;-75
2022/04/17 00:33:41;;;;;;;;;;;7.90;99.90;;;;;;5066275;28;19913;-75
2022/04/17 00:36:07;;;;;;;;;;;7.90;99.90;;;;;;5072590;28;19920;-75
2022/04/17 00:38:32;;;;;;;;;;;7.80;99.90;;;;;;5077270;28;20184;-75
2022/04/17 00:40:58;;;;;;;;;;;7.80;99.90;;;;;;5077420;28;19919;-75
2022/04/17 00:43:31;;;;;;;;;;;7.80;99.90;;;;;;5073294;28;20012;-78
2022/04/17 00:45:57;;;;;;;;;;;7.70;99.90;;;;;;5063425;28;19920;-76
2022/04/17 00:48:23;;;;;;;;;;;7.70;99.90;;;;;;5071958;28;19920;-75
2022/04/17 00:50:51;;;;;;;;;;;7.70;99.90;;;;;;5074135;28;20256;-75
2022/04/17 00:53:21;;;;;;;;;;;7.60;99.90;;;;;;5061338;28;19951;-75
2022/04/17 00:55:47;;;;;;;;;;;7.60;99.90;;;;;;5077277;28;19921;-75
2022/04/17 00:58:14;;;;;;;;;;;7.50;99.90;;;;;;5070963;28;19912;-75
2022/04/17 01:00:40;;;;;;;;;;;7.50;99.90;;;;;;5075517;28;19952;-75
2022/04/17 01:03:06;;;;;;;;;;;7.40;99.90;;;;;;5073165;28;19923;-75
2022/04/17 01:05:32;;;;;;;;;;;7.40;99.90;;;;;;5072408;28;19917;-75
2022/04/17 01:07:58;;;;;;;;;;;7.30;99.90;;;;;;5077369;28;19913;-75
2022/04/17 01:10:24;;;;;;;;;;;7.30;99.90;;;;;;5076291;28;19916;-75
2022/04/17 01:12:51;;;;;;;;;;;7.30;99.90;;;;;;5068556;28;19912;-75
2022/04/17 01:15:17;;;;;;;;;;;7.20;99.90;;;;;;5073520;28;20015;-75
2022/04/17 01:17:42;;;;;;;;;;;7.10;99.90;;;;;;5074206;28;20019;-75
2022/04/17 01:20:10;;;;;;;;;;;7.00;99.90;;;;;;5076706;28;19919;-75
2022/04/17 01:22:35;;;;;;;;;;;6.90;99.90;;;;;;5074385;28;20305;-75
2022/04/17 01:27:45;;;;;;;;;;;6.80;99.90;;;;;;5077549;28;19916;-75
2022/04/17 01:30:10;;;;;;;;;;;6.80;99.90;;;;;;5075556;28;19912;-75
2022/04/17 01:32:36;;;;;;;;;;;6.80;99.90;;;;;;5069820;28;19916;-75
2022/04/17 01:35:01;;;;;;;;;;;6.80;99.90;;;;;;5075274;28;19926;-75
2022/04/17 01:37:27;;;;;;;;;;;6.80;99.90;;;;;;5066770;28;19920;-75
2022/04/17 01:39:52;;;;;;;;;;;6.70;99.90;;;;;;5071154;28;19916;-75
2022/04/17 01:42:18;;;;;;;;;;;6.70;99.90;;;;;;5063651;28;20015;-75
2022/04/17 01:44:44;;;;;;;;;;;6.60;99.90;;;;;;5061097;28;19913;-75
2022/04/17 01:47:09;;;;;;;;;;;6.60;99.90;;;;;;5073629;28;19912;-75
2022/04/17 01:49:36;;;;;;;;;;;6.60;99.90;;;;;;5076045;28;19920;-75
2022/04/17 01:52:02;;;;;;;;;;;6.60;99.90;;;;;;5076338;28;19916;-75
2022/04/17 01:54:28;;;;;;;;;;;6.50;99.90;;;;;;5077239;28;19920;-75
2022/04/17 01:56:53;;;;;;;;;;;6.50;99.90;;;;;;5073897;28;19924;-75
2022/04/17 01:59:20;;;;;;;;;;;6.50;99.90;;;;;;5067131;28;19913;-74
2022/04/17 02:01:46;;;;;;;;;;;6.50;99.90;;;;;;5075294;28;19955;-75
2022/04/17 02:04:11;;;;;;;;;;;6.40;99.90;;;;;;5067443;28;19955;-75
2022/04/17 02:06:41;;;;;;;;;;;6.40;99.90;;;;;;5073991;28;20307;-74
2022/04/17 02:09:09;;;;;;;;;;;6.40;99.90;;;;;;5092424;28;19923;-75
2022/04/17 02:11:34;;;;;;;;;;;6.30;99.90;;;;;;5062557;28;20279;-75
2022/04/17 02:14:00;;;;;;;;;;;6.30;99.90;;;;;;5069013;28;19912;-75
2022/04/17 02:16:26;;;;;;;;;;;6.20;99.90;;;;;;5075783;28;20018;-75
2022/04/17 02:18:54;;;;;;;;;;;6.20;99.90;;;;;;5073124;28;20017;-74
2022/04/17 02:21:21;;;;;;;;;;;6.10;99.90;;;;;;5075747;28;20456;-75
2022/04/17 02:23:47;;;;;;;;;;;6.10;99.90;;;;;;5077438;28;19924;-75
2022/04/17 02:26:13;;;;;;;;;;;6.10;99.90;;;;;;5074856;28;19913;-75
2022/04/17 02:28:40;;;;;;;;;;;6.10;99.90;;;;;;5070016;28;19912;-75
2022/04/17 02:31:07;;;;;;;;;;;6.10;99.90;;;;;;5063103;28;19955;-75
2022/04/17 02:33:33;;;;;;;;;;;6.10;99.90;;;;;;5087186;28;19923;-75
2022/04/17 02:35:59;;;;;;;;;;;6.10;99.90;;;;;;5072995;28;19916;-75
2022/04/17 02:38:25;;;;;;;;;;;6.00;99.90;;;;;;5072331;28;20211;-75
2022/04/17 02:40:51;;;;;;;;;;;5.90;99.90;;;;;;5060059;28;19908;-75
2022/04/17 02:43:16;;;;;;;;;;;5.90;99.90;;;;;;5074459;28;19921;-75
2022/04/17 02:45:42;;;;;;;;;;;5.80;99.90;;;;;;5066024;28;19920;-75
2022/04/17 02:48:08;;;;;;;;;;;5.70;99.90;;;;;;5069196;28;19920;-76
2022/04/17 02:50:33;;;;;;;;;;;5.70;99.90;;;;;;5066729;28;19924;-76
2022/04/17 02:53:00;;;;;;;;;;;5.70;99.90;;;;;;5076092;28;19912;-75
2022/04/17 02:55:26;;;;;;;;;;;5.70;99.90;;;;;;5073076;28;19913;-77
2022/04/17 02:57:52;;;;;;;;;;;5.70;99.90;;;;;;5069539;28;19963;-75
2022/04/17 03:00:17;;;;;;;;;;;5.60;99.90;;;;;;5072782;28;19921;-75
2022/04/17 03:05:37;;;;;;;;;;;5.40;99.90;;;;;;5062955;28;19986;-75
2022/04/17 03:08:09;;;;;;;;;;;5.30;99.90;;;;;;5071559;28;19917;-75
2022/04/17 03:10:36;;;;;;;;;;;5.10;99.90;;;;;;5074451;28;19920;-75
2022/04/17 03:13:01;;;;;;;;;;;5.10;99.90;;;;;;5074389;28;19912;-75
2022/04/17 03:15:27;;;;;;;;;;;5.00;99.90;;;;;;5066384;28;20208;-75
2022/04/17 03:17:52;;;;;;;;;;;4.90;99.90;;;;;;5072191;28;20304;-75
2022/04/17 03:20:19;;;;;;;;;;;4.80;99.90;;;;;;5070773;28;19912;-75
2022/04/17 03:22:44;;;;;;;;;;;4.80;99.90;;;;;;5072727;28;19923;-75
2022/04/17 03:25:10;;;;;;;;;;;4.80;99.90;;;;;;5064142;28;20000;-75
2022/04/17 03:27:36;;;;;;;;;;;4.80;99.90;;;;;;5073249;28;19917;-74
2022/04/17 03:30:02;;;;;;;;;;;4.80;99.90;;;;;;5064034;28;20474;-75
2022/04/17 03:32:28;;;;;;;;;;;4.70;99.90;;;;;;5068730;28;19925;-75
2022/04/17 03:34:53;;;;;;;;;;;4.70;99.90;;;;;;5073299;28;19919;-75
2022/04/17 03:37:19;;;;;;;;;;;4.60;99.90;;;;;;5071265;28;19952;-75
2022/04/17 03:39:51;;;;;;;;;;;4.50;99.90;;;;;;5073153;28;19908;-75
2022/04/17 03:42:17;;;;;;;;;;;4.40;99.90;;;;;;5067571;28;19990;-75
2022/04/17 03:44:42;;;;;;;;;;;4.30;99.90;;;;;;5055190;28;20303;-74
2022/04/17 03:47:08;;;;;;;;;;;4.20;99.90;;;;;;5073195;28;19912;-75
2022/04/17 03:49:34;;;;;;;;;;;4.20;99.90;;;;;;5074008;28;19912;-75
2022/04/17 03:52:02;;;;;;;;;;;4.20;99.90;;;;;;5071653;28;20053;-75
2022/04/17 03:54:28;;;;;;;;;;;4.20;99.90;;;;;;5075366;28;19912;-75
2022/04/17 03:56:53;;;;;;;;;;;4.20;99.90;;;;;;5070855;28;20214;-75
2022/04/17 03:59:19;;;;;;;;;;;4.20;99.90;;;;;;5076022;28;20188;-75
2022/04/17 04:01:48;;;;;;;;;;;4.20;99.90;;;;;;5072086;28;19920;-75
2022/04/17 04:04:17;;;;;;;;;;;4.20;99.90;;;;;;5073650;28;19917;-75
2022/04/17 04:06:43;;;;;;;;;;;4.20;99.90;;;;;;5058332;28;19978;-74
2022/04/17 04:09:09;;;;;;;;;;;4.20;99.90;;;;;;5062000;28;19999;-75
2022/04/17 04:11:34;;;;;;;;;;;4.30;99.90;;;;;;5070313;28;20367;-75
2022/04/17 04:14:00;;;;;;;;;;;4.30;99.90;;;;;;5069723;28;20319;-75
2022/04/17 04:16:25;;;;;;;;;;;4.20;99.90;;;;;;5057221;28;20211;-75
2022/04/17 04:18:51;;;;;;;;;;;4.20;99.90;;;;;;5066018;28;20003;-74
2022/04/17 04:21:17;;;;;;;;;;;4.20;99.90;;;;;;5073746;28;20365;-75
2022/04/17 04:23:42;;;;;;;;;;;4.10;99.90;;;;;;5074182;28;19916;-75
2022/04/17 04:26:08;;;;;;;;;;;4.10;99.90;;;;;;5073437;28;19916;-76
2022/04/17 04:28:33;;;;;;;;;;;4.10;99.90;;;;;;5065514;28;19916;-75
2022/04/17 04:31:14;;;;;;;;;;;4.10;99.90;;;;;;5063861;28;19959;-75
2022/04/17 04:33:40;;;;;;;;;;;4.10;99.90;;;;;;5067582;28;19913;-75
2022/04/17 04:36:07;;;;;;;;;;;4.10;99.90;;;;;;5066055;28;19923;-75
2022/04/17 04:38:33;;;;;;;;;;;4.20;99.90;;;;;;5066587;28;19955;-75
2022/04/17 04:41:02;;;;;;;;;;;4.30;99.90;;;;;;5072364;28;19966;-75
2022/04/17 04:43:28;;;;;;;;;;;4.40;99.90;;;;;;5073322;28;19946;-74
2022/04/17 04:46:09;;;;;;;;;;;4.50;99.90;;;;;;5070104;28;19920;-74
2022/04/17 04:51:26;;;;;;;;;;;4.60;99.90;;;;;;5071394;28;19923;-75
2022/04/17 04:53:52;;;;;;;;;;;4.60;99.90;;;;;;5068209;28;20318;-75
2022/04/17 04:56:18;;;;;;;;;;;4.60;99.90;;;;;;5071398;28;19913;-75
2022/04/17 04:58:44;;;;;;;;;;;4.70;99.90;;;;;;5068016;28;20011;-74
2022/04/17 05:01:10;;;;;;;;;;;4.70;99.90;;;;;;5070164;28;20007;-74
2022/04/17 05:03:35;;;;;;;;;;;4.70;99.90;;;;;;5063670;28;19912;-74
2022/04/17 05:06:01;;;;;;;;;;;4.70;99.90;;;;;;5071265;28;20279;-75
2022/04/17 05:08:27;;;;;;;;;;;4.70;99.90;;;;;;5070348;28;20329;-75
2022/04/17 05:10:53;;;;;;;;;;;4.70;99.90;;;;;;5068114;28;19921;-75
2022/04/17 05:13:18;;;;;;;;;;;4.80;99.90;;;;;;5071841;28;19912;-75
2022/04/17 05:15:44;;;;;;;;;;;4.80;99.90;;;;;;5070189;28;19912;-75
2022/04/17 05:18:09;;;;;;;;;;;4.80;99.90;;;;;;5071184;28;19966;-74
2022/04/17 05:20:35;;;;;;;;;;;4.90;99.90;;;;;;5074565;28;19939;-75
2022/04/17 05:23:15;;;;;;;;;;;5.00;99.90;;;;;;5075658;28;19959;-74
2022/04/17 05:25:41;;;;;;;;;;;5.00;99.90;;;;;;5073712;28;19913;-74
2022/04/17 05:28:07;;;;;;;;;;;5.10;99.90;;;;;;5072596;28;19925;-75
2022/04/17 05:30:32;;;;;;;;;;;5.10;99.90;;;;;;5073185;28;19923;-75
2022/04/17 05:32:58;;;;;;;;;;;5.20;99.90;;;;;;5076648;28;19916;-75
2022/04/17 05:35:24;;;;;;;;;;;5.20;99.90;;;;;;5073538;28;19995;-74
2022/04/17 05:37:49;;;;;;;;;;;5.20;99.90;;;;;;5075198;28;19917;-75
2022/04/17 05:40:15;;;;;;;;;;;5.20;99.90;;;;;;5073893;28;19912;-75
2022/04/17 05:42:40;;;;;;;;;;;5.30;99.90;;;;;;5072749;28;19916;-75
2022/04/17 05:45:06;;;;;;;;;;;5.30;99.90;;;;;;5073518;28;20041;-75
2022/04/17 05:47:32;;;;;;;;;;;5.30;99.90;;;;;;5072181;28;19920;-75
2022/04/17 05:49:58;;;;;;;;;;;5.40;99.90;;;;;;5073618;28;19920;-74
2022/04/17 05:52:24;;;;;;;;;;;5.50;99.90;;;;;;5072942;28;19928;-75
2022/04/17 05:54:49;;;;;;;;;;;5.60;99.90;;;;;;5073480;28;19920;-75
2022/04/17 05:57:15;;;;;;;;;;;5.60;99.90;;;;;;5072962;28;19913;-74
2022/04/17 05:59:40;;;;;;;;;;;5.70;99.90;;;;;;5072437;28;19995;-74
2022/04/17 06:02:08;;;;;;;;;;;5.80;99.90;;;;;;5074308;28;19912;-75
2022/04/17 06:04:34;;;;;;;;;;;5.90;99.90;;;;;;5074808;28;19995;-75
2022/04/17 06:06:59;;;;;;;;;;;6.10;99.90;;;;;;5073537;28;20003;-74
2022/04/17 06:09:25;;;;;;;;;;;6.20;99.90;;;;;;5074295;28;19989;-75
2022/04/17 06:11:50;;;;;;;;;;;6.20;99.90;;;;;;5066148;28;19966;-75
2022/04/17 06:14:16;;;;;;;;;;;6.30;99.90;;;;;;5054955;28;19962;-75
2022/04/17 06:16:41;;;;;;;;;;;6.50;99.90;;;;;;5074136;28;19928;-76
2022/04/17 06:19:09;;;;;;;;;;;6.60;99.90;;;;;;5074461;28;20007;-75
2022/04/17 06:21:36;;;;;;;;;;;6.70;99.90;;;;;;5075837;28;19925;-76
2022/04/17 06:24:01;;;;;;;;;;;6.90;99.90;;;;;;5075375;28;19913;-75
2022/04/17 06:26:27;;;;;;;;;;;7.10;99.90;;;;;;5075589;28;20007;-75
2022/04/17 06:28:52;;;;;;;;;;;7.20;99.90;;;;;;5073789;28;19912;-75
2022/04/17 06:31:18;;;;;;;;;;;7.40;99.90;;;;;;5072365;28;20365;-74
2022/04/17 06:33:44;;;;;;;;;;;7.50;99.90;;;;;;5073274;28;19916;-75
2022/04/17 06:36:09;;;;;;;;;;;7.60;99.90;;;;;;5074173;28;19918;-75
2022/04/17 06:38:35;;;;;;;;;;;7.70;99.90;;;;;;5075362;28;20007;-76
2022/04/17 06:41:00;;;;;;;;;;;7.80;99.90;;;;;;5074361;28;19920;-75
2022/04/17 06:43:26;;;;;;;;;;;7.90;99.90;;;;;;5074760;28;19913;-75
2022/04/17 06:45:51;;;;;;;;;;;8.10;99.90;;;;;;5075332;28;20219;-76
2022/04/17 06:48:19;;;;;;;;;;;8.20;99.90;;;;;;5074129;28;19956;-76
2022/04/17 06:50:45;;;;;;;;;;;8.30;99.90;;;;;;5073293;28;19922;-75
2022/04/17 06:53:11;;;;;;;;;;;8.50;99.90;;;;;;5071511;28;19912;-75
2022/04/17 06:55:36;;;;;;;;;;;8.60;99.90;;;;;;5073438;28;19943;-75
2022/04/17 06:58:02;;;;;;;;;;;8.80;99.90;;;;;;5074882;28;19923;-76
2022/04/17 07:00:28;;;;;;;;;;;8.90;99.90;;;;;;5075302;28;20057;-75
2022/04/17 07:02:53;;;;;;;;;;;9.30;99.90;;;;;;5073811;28;19913;-75
2022/04/17 07:05:19;;;;;;;;;;;9.70;99.90;;;;;;5074764;28;19927;-76
2022/04/17 07:07:45;;;;;;;;;;;10.30;99.40;;;;;;5074938;28;19913;-76
2022/04/17 07:10:11;;;;;;;;;;;10.90;98.30;;;;;;5074397;28;20334;-77
2022/04/17 07:12:37;;;;;;;;;;;11.70;98.50;;;;;;5062273;28;19959;-75
2022/04/17 07:15:06;;;;;;;;;;;12.20;96.60;;;;;;5071048;28;19955;-76
2022/04/17 07:17:32;;;;;;;;;;;12.30;95.90;;;;;;5073022;28;20327;-76
2022/04/17 07:19:57;;;;;;;;;;;12.50;95.20;;;;;;5074735;28;19924;-75
2022/04/17 07:22:23;;;;;;;;;;;12.90;94.20;;;;;;5063780;28;19966;-75
2022/04/17 07:24:53;;;;;;;;;;;13.10;93.60;;;;;;5074012;28;19926;-76
2022/04/17 07:27:20;;;;;;;;;;;13.30;94.40;;;;;;5074577;28;19923;-75
2022/04/17 07:29:46;;;;;;;;;;;13.50;93.00;;;;;;5073789;28;19919;-76
2022/04/17 07:32:11;;;;;;;;;;;13.50;91.60;;;;;;5071462;28;19916;-75
2022/04/17 07:34:37;;;;;;;;;;;13.40;91.70;;;;;;5073442;28;19920;-76
2022/04/17 07:37:03;;;;;;;;;;;13.60;92.90;;;;;;5070558;28;20195;-76
2022/04/17 07:39:29;;;;;;;;;;;13.90;90.50;;;;;;5073343;28;19919;-75
2022/04/17 07:41:54;;;;;;;;;;;14.10;91.80;;;;;;5073781;28;19917;-75
2022/04/17 07:44:20;;;;;;;;;;;14.60;91.50;;;;;;5073616;28;19916;-76
2022/04/17 07:46:46;;;;;;;;;;;15.00;89.90;;;;;;5073333;28;19912;-75
2022/04/17 07:49:11;;;;;;;;;;;15.40;89.10;;;;;;5072982;28;19916;-75
2022/04/17 07:51:37;;;;;;;;;;;15.90;88.70;;;;;;5073043;28;19928;-76
2022/04/17 07:54:03;;;;;;;;;;;16.20;87.70;;;;;;5073411;28;19913;-76
2022/04/17 07:56:28;;;;;;;;;;;16.50;82.80;;;;;;5073695;28;19920;-76
2022/04/17 07:58:54;;;;;;;;;;;16.60;84.30;;;;;;5073179;28;19912;-75
2022/04/17 08:01:20;;;;;;;;;;;16.60;84.30;;;;;;5074555;28;20000;-77
2022/04/17 08:03:46;;;;;;;;;;;16.60;84.90;;;;;;5069083;28;20295;-77
2022/04/17 08:06:15;;;;;;;;;;;17.00;83.70;;;;;;5071117;28;20257;-75
2022/04/17 08:08:40;;;;;;;;;;;17.30;83.90;;;;;;5070838;28;20219;-75
2022/04/17 08:11:06;;;;;;;;;;;17.50;79.10;;;;;;5068808;28;19924;-75
2022/04/17 08:13:32;;;;;;;;;;;17.40;78.70;;;;;;5072158;28;20333;-78
2022/04/17 08:15:59;;;;;;;;;;;17.60;78.60;;;;;;5072858;28;19951;-76
2022/04/17 08:18:24;;;;;;;;;;;17.60;74.70;;;;;;5070665;28;19931;-76
2022/04/17 08:20:50;;;;;;;;;;;17.20;78.70;;;;;;5074885;28;20303;-76
2022/04/17 08:23:16;;;;;;;;;;;17.30;79.90;;;;;;5073091;28;19913;-76
2022/04/17 08:25:42;;;;;;;;;;;17.60;81.50;;;;;;5065762;28;20308;-77
2022/04/17 08:28:07;;;;;;;;;;;18.00;77.20;;;;;;5072051;28;19939;-77
2022/04/17 08:30:33;;;;;;;;;;;18.30;76.20;;;;;;5057022;28;20007;-77
2022/04/17 08:33:00;;;;;;;;;;;18.30;71.70;;;;;;5070133;28;19969;-76
2022/04/17 08:35:26;;;;;;;;;;;17.90;72.20;;;;;;5074047;28;20307;-76
2022/04/17 08:37:52;;;;;;;;;;;17.80;78.00;;;;;;5069901;28;19916;-76
2022/04/17 08:40:18;;;;;;;;;;;18.00;72.80;;;;;;5072361;28;19922;-76
2022/04/17 08:42:44;;;;;;;;;;;18.00;76.90;;;;;;5059309;28;20007;-76
2022/04/17 08:45:10;;;;;;;;;;;18.20;75.10;;;;;;5070688;28;19958;-76
2022/04/17 08:47:37;;;;;;;;;;;18.30;75.20;;;;;;5068727;28;19912;-76
2022/04/17 08:50:05;;;;;;;;;;;18.40;77.00;;;;;;5074167;28;19916;-78
2022/04/17 08:52:31;;;;;;;;;;;18.70;73.30;;;;;;5066921;28;19935;-77
2022/04/17 08:54:58;;;;;;;;;;;18.60;69.90;;;;;;5078480;28;20246;-77
2022/04/17 08:57:24;;;;;;;;;;;18.30;70.50;;;;;;5074413;28;19920;-76
2022/04/17 08:59:49;;;;;;;;;;;18.10;73.30;;;;;;5071657;28;19912;-76
2022/04/17 09:02:16;;;;;;;;;;;18.30;72.90;;;;;;5074502;28;20032;-76
2022/04/17 09:04:42;;;;;;;;;;;18.50;77.50;;;;;;5078803;28;19956;-77
2022/04/17 09:07:08;;;;;;;;;;;18.60;75.10;;;;;;5078754;28;19960;-77
2022/04/17 09:09:47;;;;;;;;;;;18.80;78.10;;;;;;5077416;28;20275;-77
2022/04/17 09:12:23;;;;;;;;;;;19.10;74.70;;;;;;5069563;28;20392;-76
2022/04/17 09:14:49;;;;;;;;;;;19.40;71.20;;;;;;5062467;28;19912;-76
2022/04/17 09:17:15;;;;;;;;;;;19.30;76.20;;;;;;5077343;28;19912;-77
2022/04/17 09:19:41;;;;;;;;;;;19.40;68.90;;;;;;5067942;28;19978;-78
2022/04/17 09:22:08;;;;;;;;;;;19.40;67.70;;;;;;5074762;28;20398;-77
2022/04/17 09:24:37;;;;;;;;;;;19.20;69.50;;;;;;5076446;28;20330;-77
2022/04/17 09:27:03;;;;;;;;;;;19.20;68.20;;;;;;5075157;28;20015;-77
2022/04/17 09:29:30;;;;;;;;;;;19.20;69.20;;;;;;5075840;28;19996;-77
2022/04/17 09:32:00;;;;;;;;;;;19.40;69.20;;;;;;5086586;28;19959;-77
2022/04/17 09:34:26;;;;;;;;;;;19.70;65.40;;;;;;5068013;28;19952;-77
2022/04/17 09:36:52;;;;;;;;;;;19.50;68.70;;;;;;5067796;28;19962;-78
2022/04/17 09:39:19;;;;;;;;;;;19.80;65.00;;;;;;5076326;28;19921;-77
2022/04/17 09:41:55;;;;;;;;;;;19.80;66.60;;;;;;5075638;28;20030;-77
2022/04/17 09:44:47;;;;;;;;;;;19.20;69.00;;;;;;5072127;28;19920;-77
2022/04/17 09:47:16;;;;;;;;;;;18.40;71.40;;;;;;5074995;28;19916;-77
2022/04/17 09:49:57;;;;;;;;;;;18.00;69.20;;;;;;5075906;28;19912;-77
2022/04/17 09:52:25;;;;;;;;;;;18.30;70.30;;;;;;5075450;28;19959;-77
2022/04/17 09:54:52;;;;;;;;;;;18.90;70.90;;;;;;5076138;28;19912;-77
2022/04/17 09:57:18;;;;;;;;;;;19.20;67.10;;;;;;5068548;28;20331;-76
2022/04/17 09:59:43;;;;;;;;;;;19.40;68.00;;;;;;5077248;28;19909;-77
2022/04/17 10:02:12;;;;;;;;;;;19.60;69.20;;;;;;5077674;28;19966;-77
2022/04/17 10:04:39;;;;;;;;;;;19.70;67.50;;;;;;5075763;28;19966;-78
2022/04/17 10:07:04;;;;;;;;;;;19.80;65.70;;;;;;5075954;28;19919;-78
2022/04/17 10:09:31;;;;;;;;;;;20.00;65.20;;;;;;5075829;28;20219;-78
2022/04/17 10:11:59;;;;;;;;;;;19.50;67.20;;;;;;5063257;28;19925;-78
2022/04/17 10:14:27;;;;;;;;;;;19.50;65.90;;;;;;5060879;28;19927;-77
2022/04/17 10:16:54;;;;;;;;;;;19.20;67.30;;;;;;5075567;28;19912;-78
2022/04/17 10:19:19;;;;;;;;;;;19.10;67.50;;;;;;5076680;28;19927;-77
2022/04/17 10:21:45;;;;;;;;;;;19.30;69.50;;;;;;5077460;28;19909;-77
2022/04/17 10:24:12;;;;;;;;;;;19.20;65.90;;;;;;5076256;28;19909;-78
2022/04/17 10:26:41;;;;;;;;;;;19.30;70.10;;;;;;5076002;28;19917;-77
2022/04/17 10:29:09;;;;;;;;;;;19.50;70.80;;;;;;5076115;28;19915;-77
2022/04/17 10:31:52;;;;;;;;;;;19.70;65.80;;;;;;5075011;28;19917;-78
2022/04/17 10:34:37;;;;;;;;;;;19.00;65.60;;;;;;5073963;28;19916;-76
2022/04/17 10:37:25;;;;;;;;;;;19.00;68.90;;;;;;5074767;28;20253;-77
2022/04/17 10:39:54;;;;;;;;;;;19.10;66.60;;;;;;5077321;28;19939;-77
2022/04/17 10:42:22;;;;;;;;;;;19.10;66.70;;;;;;5074790;28;20296;-77
2022/04/17 10:45:00;;;;;;;;;;;19.10;66.30;;;;;;5070773;28;19934;-78
2022/04/17 10:47:27;;;;;;;;;;;19.30;67.90;;;;;;5070193;28;19924;-78
2022/04/17 10:49:54;;;;;;;;;;;19.80;68.60;;;;;;5073921;28;19913;-77
2022/04/17 10:52:32;;;;;;;;;;;19.90;66.40;;;;;;5073283;28;20375;-77
2022/04/17 10:55:08;;;;;;;;;;;19.20;68.30;;;;;;5075125;28;19965;-77
2022/04/17 10:57:47;;;;;;;;;;;19.30;68.20;;;;;;5074631;28;20009;-77
2022/04/17 11:00:33;;;;;;;;;;;19.30;65.70;;;;;;5075739;28;19982;-76
2022/04/17 11:03:01;;;;;;;;;;;19.60;68.70;;;;;;5087831;28;19920;-77
2022/04/17 11:08:25;;;;;;;;;;;20.10;62.60;;;;;;5076481;28;19938;-77
2022/04/17 11:11:02;;;;;;;;;;;20.00;62.90;;;;;;5074320;28;19921;-76
2022/04/17 11:13:27;;;;;;;;;;;19.80;63.70;;;;;;5074839;28;20007;-77
2022/04/17 11:15:56;;;;;;;;;;;19.80;63.00;;;;;;5073315;28;20342;-77
2022/04/17 11:18:28;;;;;;;;;;;19.10;67.50;;;;;;5075025;28;19920;-77
2022/04/17 11:20:55;;;;;;;;;;;19.10;67.00;;;;;;5076226;28;19913;-75
2022/04/17 11:23:39;;;;;;;;;;;18.40;66.70;;;;;;5075138;28;19909;-76
2022/04/17 11:26:04;;;;;;;;;;;18.40;69.60;;;;;;5054987;28;19920;-76
2022/04/17 11:28:35;;;;;;;;;;;18.50;70.20;;;;;;5056320;28;19908;-77
2022/04/17 11:31:01;;;;;;;;;;;18.60;79.60;;;;;;5057039;28;19916;-76
2022/04/17 11:33:27;;;;;;;;;;;19.10;74.20;;;;;;5075759;28;19974;-79
2022/04/17 11:35:53;;;;;;;;;;;19.30;71.90;;;;;;5072527;28;19999;-78
2022/04/17 11:38:18;;;;;;;;;;;19.40;66.10;;;;;;5074442;28;19995;-77
2022/04/17 11:40:47;;;;;;;;;;;19.10;67.70;;;;;;5074423;28;19916;-77
2022/04/17 11:43:15;;;;;;;;;;;19.10;67.50;;;;;;5065761;28;20211;-79
2022/04/17 11:45:42;;;;;;;;;;;18.90;68.70;;;;;;5071689;28;19919;-77
2022/04/17 11:48:12;;;;;;;;;;;18.80;64.70;;;;;;5074960;28;19916;-77
2022/04/17 11:50:38;;;;;;;;;;;18.70;64.60;;;;;;5075574;28;20303;-78
2022/04/17 11:53:05;;;;;;;;;;;18.90;65.20;;;;;;5075592;28;19912;-77
2022/04/17 11:55:35;;;;;;;;;;;18.90;61.80;;;;;;5072620;28;20295;-76
2022/04/17 11:58:01;;;;;;;;;;;18.90;61.70;;;;;;5073858;28;19913;-77
2022/04/17 12:00:27;;;;;;;;;;;18.90;60.30;;;;;;5073758;28;19915;-79
2022/04/17 12:02:56;;;;;;;;;;;18.50;64.70;;;;;;5073420;28;19912;-76
2022/04/17 12:05:22;;;;;;;;;;;18.50;63.70;;;;;;5070699;28;19927;-76
2022/04/17 12:07:55;;;;;;;;;;;18.80;61.60;;;;;;5074923;28;19927;-76
2022/04/17 12:10:22;;;;;;;;;;;18.90;61.60;;;;;;5071100;28;19917;-76
2022/04/17 12:12:47;;;;;;;;;;;18.80;60.40;;;;;;5074496;28;20335;-79
2022/04/17 12:15:14;;;;;;;;;;;18.70;63.70;;;;;;5074476;28;19991;-77
2022/04/17 12:17:40;;;;;;;;;;;18.70;65.00;;;;;;5073823;28;20226;-76
2022/04/17 12:20:06;;;;;;;;;;;18.50;65.00;;;;;;5073024;28;19912;-76
2022/04/17 12:22:31;;;;;;;;;;;18.80;62.90;;;;;;5072925;28;19970;-77
2022/04/17 12:24:58;;;;;;;;;;;19.00;61.70;;;;;;5075229;28;20230;-81
2022/04/17 12:27:24;;;;;;;;;;;19.20;62.50;;;;;;5075323;28;19939;-75
2022/04/17 12:29:50;;;;;;;;;;;19.30;61.70;;;;;;5077622;28;19908;-77
2022/04/17 12:32:16;;;;;;;;;;;19.20;61.70;;;;;;5076085;28;19927;-75
2022/04/17 12:34:45;;;;;;;;;;;18.70;62.40;;;;;;5077691;28;19999;-76
2022/04/17 12:37:21;;;;;;;;;;;18.80;63.80;;;;;;5074754;28;19920;-77
2022/04/17 12:39:47;;;;;;;;;;;19.00;63.40;;;;;;5079432;28;19946;-78
2022/04/17 12:42:18;;;;;;;;;;;19.10;61.00;;;;;;5078382;28;19916;-76
2022/04/17 12:44:47;;;;;;;;;;;19.10;62.20;;;;;;5079417;28;19916;-77
2022/04/17 12:47:13;;;;;;;;;;;19.30;65.80;;;;;;5079165;28;20007;-80
2022/04/17 12:49:39;;;;;;;;;;;19.00;65.50;;;;;;5079297;28;19916;-76
2022/04/17 12:52:05;;;;;;;;;;;19.20;62.20;;;;;;5071386;28;19916;-76
2022/04/17 12:54:31;;;;;;;;;;;19.40;66.70;;;;;;5079475;28;19959;-77
2022/04/17 12:57:00;;;;;;;;;;;19.70;62.60;;;;;;5077457;28;19913;-79
2022/04/17 12:59:26;;;;;;;;;;;19.50;62.80;;;;;;5078003;28;20215;-77
2022/04/17 13:01:51;;;;;;;;;;;19.60;63.10;;;;;;5077775;28;19913;-76
2022/04/17 13:04:21;;;;;;;;;;;19.50;60.60;;;;;;5077878;28;20412;-76
2022/04/17 13:06:47;;;;;;;;;;;19.50;60.30;;;;;;5076520;28;20437;-77
2022/04/17 13:09:16;;;;;;;;;;;19.60;63.10;;;;;;5076762;28;20345;-76
2022/04/17 13:11:52;;;;;;;;;;;19.80;62.20;;;;;;5076424;28;19927;-76
2022/04/17 13:14:19;;;;;;;;;;;19.70;60.60;;;;;;5077063;28;20243;-78
2022/04/17 13:16:57;;;;;;;;;;;19.80;60.60;;;;;;5076313;28;20015;-77
2022/04/17 13:19:24;;;;;;;;;;;19.60;59.20;;;;;;5077072;28;19989;-78
2022/04/17 13:21:49;;;;;;;;;;;19.60;61.10;;;;;;5075390;28;20240;-76
2022/04/17 13:24:16;;;;;;;;;;;19.60;60.90;;;;;;5077606;28;19915;-76
2022/04/17 13:26:42;;;;;;;;;;;19.70;60.10;;;;;;5075939;28;20029;-76
2022/04/17 13:29:08;;;;;;;;;;;19.80;59.10;;;;;;5077436;28;19950;-77
2022/04/17 13:31:35;;;;;;;;;;;19.50;62.20;;;;;;5076987;28;19955;-81
2022/04/17 13:34:02;;;;;;;;;;;19.60;59.10;;;;;;5074282;28;19982;-78
2022/04/17 13:36:28;;;;;;;;;;;19.70;58.70;;;;;;5077065;28;19966;-76
2022/04/17 13:38:54;;;;;;;;;;;19.50;61.50;;;;;;5077501;28;19908;-77
2022/04/17 13:41:19;;;;;;;;;;;19.40;57.30;;;;;;5077027;28;19908;-76
2022/04/17 13:43:45;;;;;;;;;;;19.60;57.00;;;;;;5075694;28;19908;-77
2022/04/17 13:46:10;;;;;;;;;;;19.70;59.50;;;;;;5075422;28;19944;-76
2022/04/17 13:48:38;;;;;;;;;;;19.40;61.80;;;;;;5075274;28;19908;-76
2022/04/17 13:51:05;;;;;;;;;;;19.40;61.10;;;;;;5073011;28;19947;-76
2022/04/17 13:53:31;;;;;;;;;;;19.50;60.10;;;;;;5073435;28;19909;-77
2022/04/17 13:55:57;;;;;;;;;;;19.50;60.00;;;;;;5070400;28;19940;-76
2022/04/17 13:58:23;;;;;;;;;;;19.60;59.60;;;;;;5076046;28;19951;-76
2022/04/17 14:00:49;;;;;;;;;;;19.80;58.00;;;;;;5075681;28;19912;-75
2022/04/17 14:03:15;;;;;;;;;;;19.70;58.10;;;;;;5076320;28;20386;-75
2022/04/17 14:05:41;;;;;;;;;;;20.00;59.10;;;;;;5076394;28;20003;-76
2022/04/17 14:08:06;;;;;;;;;;;20.20;59.70;;;;;;5076732;28;19912;-76
2022/04/17 14:10:32;;;;;;;;;;;20.10;58.90;;;;;;5076489;28;19924;-76
2022/04/17 14:12:57;;;;;;;;;;;20.10;60.00;;;;;;5075740;28;19924;-76
2022/04/17 14:15:23;;;;;;;;;;;20.10;59.00;;;;;;5077913;28;19910;-76
2022/04/17 14:17:49;;;;;;;;;;;20.30;59.20;;;;;;5076277;28;19913;-76
2022/04/17 14:20:14;;;;;;;;;;;20.30;56.80;;;;;;5075203;28;19919;-78
2022/04/17 14:22:40;;;;;;;;;;;20.30;60.00;;;;;;5044551;28;19916;-76
2022/04/17 14:25:06;;;;;;;;;;;20.30;60.00;;;;;;5073095;28;20206;-75
2022/04/17 14:27:31;;;;;;;;;;;20.20;60.00;;;;;;5070769;28;19924;-80
2022/04/17 14:29:57;;;;;;;;;;;20.30;57.80;;;;;;5069410;28;19917;-74
2022/04/17 14:32:22;;;;;;;;;;;20.40;56.00;;;;;;5069616;28;19959;-75
2022/04/17 14:34:48;;;;;;;;;;;20.30;58.20;;;;;;5071188;28;19974;-76